We bring you up!

Munich Aviation Company

Munich Aviation Company

Munich Aviation Company

Munich Aviation Company

Sie finden uns auch auf: Munich Aviation Company auf Instagram

Flugwetter Augsburg

[Quelle: ADDS]
METAR
EDMA 230320Z AUTO 25010KT 4500 // BKN007/// OVC012/// 01/M00 Q0995 =
EDMA 221700Z 2218/2303 04004KT CAVOK BECMG 2220/2223 33008KT BKN008 BECMG 2300/2302 RA BECMG 2302/2303 27012KT 1200 SN BKN004
TAF
EDMA 221700Z 2218/2303 04004KT CAVOK BECMG 2220/2223 33008KT BKN008 BECMG 2300/2302 RA BECMG 2302/2303 27012KT 1200 SN BKN004 =

Kontakt